Weather observations for the past three days for
Delaware Airpark
Metric (Imperial)
Date Time (edt) Wind (kph) Vis. (km) Weather Sky Cond. Temperature (ºC) Relative Humidity Wind Chill (°C) Heat Index (°C) Pressure Precipitation (cm)
Air Dwpt 6 hour altimeter (cm) sea level (mb) 1 hr 3 hr 6 hr
Max. Min.
08 17:35 SW 13 G 28 16.09 Fair CLR 21 2 29% 75.87 0.0
08 17:15 SW 20 G 31 16.09 Fair CLR 21 2 29% 75.84 0.0
08 16:55 SW 22 16.09 Fair CLR 21 2 29% 75.87 0.0
08 16:35 W 15 G 33 16.09 Fair CLR 21 2 29% 75.87 0.0
08 16:15 W 17 G 28 16.09 Fair CLR 21 2 29% 75.9 0.0
08 15:55 W 17 G 30 16.09 Fair CLR 21 2 29% 75.9 0.0
08 15:35 W 19 G 33 16.09 Fair CLR 21 2 29% 75.92 0.0
08 15:15 W 19 16.09 Fair CLR 21 2 29% 75.95 0.0
08 14:55 W 26 G 37 16.09 Fair CLR 21 2 29% 75.95 0.0
08 14:35 W 30 16.09 A Few Clouds FEW080 20 1 28% 75.97 0.0
08 14:15 W 28 G 46 16.09 Fair CLR 21 1 27% 75.97 0.0
08 13:55 W 19 G 35 16.09 Fair CLR 20 1 28% 76 0.0
08 13:35 SW 33 G 43 16.09 Fair and Breezy CLR 20 1 28% 76 0.0
08 13:15 W 13 G 28 16.09 Fair CLR 20 1 28% 76.02 0.0
08 12:55 W 19 G 35 16.09 Fair CLR 19 1 30% 76.02 0.0
08 12:35 SW 20 G 33 16.09 Fair CLR 19 0 28% 76.05 0.0
08 12:15 W 24 G 39 16.09 Fair CLR 19 0 28% 76.07 0.0
08 11:55 W 26 G 35 16.09 Fair CLR 18 0 30% 76.07 0.0
08 11:35 SW 17 G 30 16.09 Fair CLR 18 1 32% 76.1 0.0
08 11:15 W 22 16.09 Fair CLR 18 1 32% 76.1 0.0
08 10:55 W 20 16.09 Fair CLR 17 1 34% 76.12 0.0
08 10:35 W 9 16.09 Fair CLR 16 1 36% 76.12 0.0
08 10:15 W 11 16.09 Fair CLR 16 1 36% 76.15 0.0
08 09:55 Vrbl 9 16.09 Fair CLR 15 2 42% 76.15 0.0
08 09:35 W 9 16.09 Fair CLR 15 1 39% 76.15 0.0
08 09:15 Vrbl 7 16.09 Fair CLR 14 3 48% 76.17 0.0
08 08:55 N 11 16.09 Fair CLR 14 3 48% 76.15 0.0
08 08:35 N 7 16.09 Fair CLR 13 5 59% 76.15 0.0
08 08:15 NW 6 16.09 Fair CLR 12 6 67% 76.15 0.0
08 07:55 Calm 16.09 Fair CLR 12 6 67% 76.12 0.0
08 07:35 Calm 16.09 Fair CLR 11 6 72% 76.12 0.0
08 07:15 Calm 16.09 Fair CLR 10 7 82% 76.1 0.0
08 06:55 Calm 16.09 Fair CLR 8 6 87% 76.1 0.0
08 06:35 W 6 16.09 Fair CLR 6 5 93% 76.07 0.0
08 06:15 Calm 16.09 NULL NULL 6 5 93% 76.05 0.0
08 05:55 Calm 16.09 NULL NULL 8 4 76% 76.02 0.0
08 05:35 Calm 16.09 NULL NULL 9 4 71% 76.02 0.0
08 05:15 Vrbl 7 16.09 NULL NULL 9 4 71% 8 76 0.0
08 04:55 Vrbl 7 16.09 NULL NULL 10 4 67% 9 76 0.0
08 04:35 NW 7 16.09 NULL NULL 10 5 71% 9 75.97 0.0
08 04:15 NW 13 16.09 NULL NULL 11 6 72% 75.95 0.0
08 03:55 NW 11 16.09 NULL NULL 11 7 77% 75.92 0.0
08 03:35 W 7 16.09 NULL NULL 10 9 94% 9 75.9 0.0
08 03:15 W 11 16.09 NULL NULL 10 9 94% 9 75.87 0.0
08 02:55 W 11 16.09 NULL NULL 10 9 94% 9 75.84 0.0
08 02:35 W 11 16.09 NULL NULL 10 9 94% 9 75.82 0.0
08 02:15 W 13 16.09 NULL NULL 10 9 94% 8 75.82 0.0
08 01:55 W 13 16.09 NULL NULL 11 9 88% 75.82 0.0
08 01:35 SW 15 16.09 NULL NULL 11 9 88% 75.82 0.0
08 01:15 W 13 16.09 NULL NULL 11 9 88% 75.82 0.0
08 00:55 W 13 16.09 NULL NULL 11 8 82% 75.82 0.0
08 00:35 SW 11 16.09 NULL NULL 11 8 82% 75.79 0.0
08 00:15 W 13 16.09 NULL NULL 10 8 88% 8 75.79 0.0
07 23:55 W 13 16.09 NULL NULL 10 8 88% 8 75.77 0.0
07 23:35 W 13 16.09 NULL NULL 10 8 88% 8 75.77 0.0
07 23:15 SW 11 16.09 NULL NULL 10 8 88% 9 75.77 0.0
07 22:55 W 13 16.09 NULL NULL 10 7 82% 8 75.79 0.0
07 22:35 W 11 16.09 NULL NULL 10 7 82% 9 75.79 0.0
07 22:15 SW 13 16.09 NULL NULL 11 8 82% 75.79 0.0
07 21:55 SW 13 16.09 NULL NULL 11 8 82% 75.77 0.0
07 21:35 SW 15 16.09 NULL NULL 11 8 82% 75.77 0.0
07 21:15 SW 11 16.09 NULL NULL 12 9 82% 75.74 0.0
07 20:55 SW 9 16.09 NULL NULL 12 9 82% 75.72 0.0
07 20:35 SW 15 16.09 NULL NULL 13 9 77% 75.69 0.0
07 20:15 SW 13 16.09 NULL NULL 13 8 72% 75.69 0.0
07 19:55 SW 7 16.09 Fair CLR 14 8 67% 75.67 0.0
07 19:35 SW 9 16.09 Fair CLR 15 8 63% 75.64 0.0
07 19:15 Vrbl 7 16.09 Fair CLR 15 8 63% 75.64 0.0
07 18:55 S 9 16.09 Fair CLR 16 7 55% 75.64 0.0
07 18:35 SW 11 16.09 Fair CLR 16 7 55% 75.62 0.0
07 18:15 S 13 16.09 Fair CLR 16 7 55% 75.64 0.0
07 17:55 S 7 16.09 Fair CLR 17 6 49% 75.64 0.0
07 17:35 S 9 16.09 Fair CLR 17 6 49% 75.67 0.0
07 17:15 S 6 16.09 Fair CLR 17 6 49% 75.67 0.0
07 16:55 Calm 16.09 Fair CLR 16 6 52% 75.64 0.0
07 16:35 SW 9 16.09 A Few Clouds FEW095 16 5 48% 75.64 0.0
07 16:15 SW 9 16.09 Fair CLR 16 5 48% 75.64 0.0
07 15:55 Calm 16.09 Fair CLR 16 5 48% 75.64 0.0
07 15:35 Calm 16.09 Fair CLR 16 5 48% 75.67 0.0
07 15:15 Calm 16.09 Fair CLR 15 5 51% 75.72 0.0
07 14:55 Calm 16.09 A Few Clouds FEW090 15 5 51% 75.72 0.0
07 14:35 Vrbl 6 16.09 A Few Clouds FEW080 15 6 55% 75.72 0.0
07 14:15 SW 7 16.09 Partly Cloudy SCT080 15 6 55% 75.77 0.0
07 13:55 Calm 16.09 A Few Clouds FEW080 15 5 51% 75.74 0.0
07 13:35 Vrbl 6 16.09 Mostly Cloudy BKN080 15 5 51% 75.77 0.0
07 13:15 N 9 16.09 Mostly Cloudy BKN075 15 5 51% 75.79 0.0
07 12:55 Vrbl 7 16.09 Mostly Cloudy BKN070 14 5 55% 75.82 0.0
07 12:35 Vrbl 9 16.09 Mostly Cloudy BKN070 15 5 51% 75.84 0.0
07 12:15 NW 11 16.09 Partly Cloudy SCT070 14 5 55% 75.87 0.0
07 11:55 N 13 16.09 Mostly Cloudy BKN065 14 5 55% 75.87 0.0
07 11:35 N 13 16.09 Overcast FEW025 OVC065 14 8 67% 75.87 0.0
07 11:15 N 7 16.09 Overcast BKN024 OVC060 14 10 77% 75.9 0.0
07 10:55 NW 11 16.09 Mostly Cloudy BKN022 BKN031 BKN060 14 10 77% 75.9 0.0
07 10:35 N 7 16.09 Mostly Cloudy FEW028 FEW034 BKN055 14 9 72% 75.92 0.0
07 10:15 N 9 16.09 Mostly Cloudy BKN055 13 10 82% 75.92 0.0
07 09:55 N 15 16.09 Overcast OVC055 13 10 82% 75.9 0.0
07 09:35 NW 11 16.09 Overcast FEW026 OVC055 13 10 82% 75.92 0.0
07 09:15 NW 13 16.09 Overcast FEW024 OVC055 13 10 82% 75.92 0.0
07 08:55 N 15 16.09 Overcast OVC055 13 10 82% 75.92 0.0
07 08:35 N 7 16.09 Overcast OVC055 13 11 88% 75.92 0.0
07 08:15 Calm 12.87 Overcast OVC050 12 12 100% 75.92 0.0
07 07:55 Calm 16.09 Overcast OVC050 12 11 94% 75.9 0.0
07 07:35 Calm 16.09 Overcast OVC050 12 11 94% 75.9 0.0
07 07:15 Calm 16.09 Overcast OVC050 12 10 88% 75.87 0.0
07 06:55 Calm 16.09 Overcast OVC047 12 10 88% 75.87 0.0
07 06:35 N 7 16.09 NULL NULL 12 10 88% 75.87 0.0
07 06:15 N 9 16.09 NULL NULL 12 10 88% 75.84 0.0
07 05:55 N 13 16.09 NULL NULL 12 10 88% 75.84 0.0
07 05:35 N 11 16.09 NULL NULL 12 11 94% 75.82 0.0
07 05:15 N 9 16.09 NULL NULL 13 12 94% 75.79 0.0
07 04:55 N 9 16.09 NULL NULL 13 12 94% 75.82 0.0
07 04:35 Vrbl 7 16.09 NULL NULL 13 12 94% 75.79 0.0
07 04:15 N 11 16.09 NULL NULL 13 12 94% 75.77 0.0
07 03:55 NW 17 16.09 NULL NULL 13 12 94% 75.77 0.0
07 03:35 N 15 G 28 16.09 NULL NULL 13 12 94% 75.74 0.0
07 03:15 N 22 16.09 NULL NULL 13 13 100% 75.72 0.0
07 02:55 NW 19 G 33 16.09 NULL NULL 14 14 100% 75.72 0.0
07 02:35 NW 19 G 39 12.87 NULL NULL 14 14 100% 75.69 0.0
07 02:15 Vrbl 9 G 22 16.09 NULL NULL 15 14 94% 75.74 0.0
07 01:55 Vrbl 9 6.44 Fog/Mist NULL 15 15 100% 75.74 0.0
07 01:35 NW 15 G 26 14.48 NULL NULL 16 14 88% 75.72 0.0
07 01:15 NW 11 G 20 16.09 NULL NULL 17 14 83% 75.69 0.0
07 00:55 NW 20 G 30 16.09 NULL NULL 18 15 83% 75.69 0.0
07 00:35 Vrbl 7 16.09 NULL NULL 19 17 88% 75.64 0.0
07 00:15 Vrbl 11 16.09 NULL NULL 19 17 88% 75.69 0.0
06 23:55 Vrbl 6 16.09 NULL NULL 19 17 88% 75.67 0.0
06 23:35 SW 7 16.09 NULL NULL 18 17 94% 75.67 0.0
06 23:15 SW 9 16.09 NULL NULL 18 17 94% 75.64 0.0
06 22:55 SW 7 16.09 NULL NULL 18 17 94% 75.64 0.0
06 22:35 S 6 16.09 NULL NULL 18 17 94% 75.64 0.0
06 22:15 S 7 16.09 NULL NULL 19 17 88% 75.67 0.0
06 21:55 S 7 16.09 NULL NULL 19 17 88% 75.72 0.0
06 21:35 S 9 16.09 NULL NULL 19 17 88% 75.69 0.0
06 21:15 SW 7 16.09 NULL NULL 19 17 88% 75.67 0.0
06 20:55 S 9 16.09 NULL NULL 19 17 88% 75.67 0.0
06 20:35 SW 9 16.09 NULL NULL 20 16 78% 75.69 0.0
06 20:15 SW 11 16.09 NULL NULL 19 16 83% 75.67 0.0
06 19:55 SW 7 16.09 A Few Clouds FEW024 20 16 78% 75.64 0.0
06 19:35 SW 9 16.09 Mostly Cloudy BKN024 20 16 78% 75.64 0.0
06 19:15 SW 13 16.09 Mostly Cloudy BKN025 21 16 73% 75.64 0.0
06 18:55 SW 17 16.09 Overcast OVC026 21 16 73% 75.64 0.0
06 18:35 SW 17 16.09 Overcast OVC026 21 16 73% 75.64 0.0
06 18:15 SW 15 G 31 16.09 Mostly Cloudy BKN026 21 16 73% 75.62 0.0
06 17:55 SW 24 G 35 16.09 Partly Cloudy SCT028 21 16 73% 75.62 0.0
06 17:35 SW 24 16.09 Overcast OVC027 21 16 73% 75.62 0.0
06 17:15 SW 30 G 41 16.09 Overcast OVC027 21 16 73% 75.62 0.0
06 16:55 SW 20 G 35 16.09 Mostly Cloudy BKN026 22 16 69% 75.59 0.0
06 16:35 SW 20 G 31 16.09 Partly Cloudy SCT026 22 16 69% 75.59 0.0
06 16:15 SW 15 G 31 16.09 A Few Clouds FEW028 FEW080 22 16 69% 75.59 0.0
06 15:55 SW 24 G 41 16.09 Fair CLR 22 16 69% 75.59 0.0
06 15:35 SW 26 G 37 16.09 A Few Clouds FEW027 FEW075 21 16 73% 75.59 0.0
06 15:15 SW 17 G 41 16.09 Mostly Cloudy BKN028 BKN075 21 16 73% 75.62 0.0
06 14:55 SW 26 G 48 16.09 Mostly Cloudy BKN026 BKN031 21 16 73% 75.64 0.0
06 14:35 SW 22 G 46 16.09 Mostly Cloudy BKN026 21 16 73% 75.64 0.0
06 14:15 SW 28 G 46 16.09 Mostly Cloudy BKN026 BKN032 20 16 78% 75.64 0.0
06 13:55 SW 33 G 48 16.09 Overcast and Breezy BKN025 OVC032 20 16 78% 75.67 0.0
06 13:35 SW 31 G 44 16.09 Mostly Cloudy SCT023 BKN029 BKN065 19 17 88% 75.67 0.0
06 13:15 SW 24 G 37 16.09 Mostly Cloudy FEW024 SCT044 BKN065 19 17 88% 75.69 0.0
06 12:55 S 24 16.09 Partly Cloudy FEW048 SCT065 18 17 94% 75.69 0.0
06 12:35 S 15 G 33 14.48 A Few Clouds FEW049 18 17 94% 75.72 0.0
06 12:15 S 17 G 31 12.87 Fair CLR 18 16 88% 75.72 0.0
06 11:55 SW 24 11.27 Fair CLR 19 15 78% 75.79 0.0
06 11:35 SW 22 G 35 16.09 Fair CLR 19 14 73% 75.79 0.0
06 11:15 SW 24 G 33 16.09 Fair CLR 20 14 69% 75.79 0.0
06 10:55 SW 22 G 43 16.09 Fair CLR 21 13 60% 75.79 0.0
06 10:35 SW 20 G 44 16.09 A Few Clouds FEW070 22 13 57% 75.79 0.0
06 10:15 S 24 G 39 16.09 Mostly Cloudy BKN070 21 12 57% 75.79 0.0
06 09:55 SW 22 G 35 16.09 A Few Clouds FEW070 21 13 60% 75.79 0.0
06 09:35 SW 26 G 44 16.09 Fair CLR 21 12 57% 75.77 0.0
06 09:15 SW 22 G 37 16.09 Fair CLR 21 12 57% 75.79 0.0
06 08:55 S 24 G 41 16.09 Fair CLR 20 12 60% 75.79 0.0
06 08:35 SW 22 G 33 16.09 Fair CLR 20 12 60% 75.82 0.0
06 08:15 SW 30 G 46 16.09 Fair CLR 20 12 60% 75.82 0.0
06 07:55 SW 24 G 43 16.09 Fair CLR 19 12 64% 75.82 0.0
06 07:35 S 19 G 31 16.09 Fair CLR 19 12 64% 75.79 0.0
06 07:15 SW 24 G 37 16.09 Fair CLR 19 12 64% 75.79 0.0
06 06:55 SW 19 G 31 16.09 Fair CLR 18 13 73% 75.79 0.0
06 06:35 SW 26 G 37 16.09 Fair CLR 18 13 73% 75.79 0.0
06 06:15 S 22 G 37 16.09 NULL NULL 18 13 73% 75.79 0.0
06 05:55 S 20 G 39 16.09 NULL NULL 18 13 73% 75.79 0.0
06 05:35 SW 24 G 33 16.09 NULL NULL 18 13 73% 75.79 0.0
06 05:15 SW 20 G 35 16.09 NULL NULL 18 13 73% 75.77 0.0
06 04:55 S 24 16.09 NULL NULL 18 14 78% 75.77 0.0
06 04:35 SW 20 G 33 16.09 NULL NULL 18 14 78% 75.77 0.0
06 04:15 S 24 G 35 16.09 NULL NULL 19 14 73% 75.79 0.0
06 03:55 SW 19 G 44 16.09 NULL NULL 19 14 73% 75.79 0.0
06 03:35 SW 17 G 35 16.09 NULL NULL 19 14 73% 75.82 0.0
06 03:15 SW 19 G 33 16.09 NULL NULL 19 14 73% 75.79 0.0
06 02:55 SW 26 G 43 16.09 NULL NULL 19 14 73% 75.79 0.0
06 02:35 S 22 G 39 16.09 NULL NULL 20 14 69% 75.82 0.0
06 02:15 S 22 G 41 16.09 NULL NULL 20 14 69% 75.82 0.0
06 01:55 SW 22 G 43 16.09 NULL NULL 20 14 69% 75.82 0.0
06 01:35 SW 24 G 35 16.09 NULL NULL 21 14 64% 75.82 0.0
06 01:15 SW 22 G 41 16.09 NULL NULL 21 14 64% 75.84 0.0
06 00:55 S 22 16.09 NULL NULL 21 14 64% 75.84 0.0
06 00:35 S 19 G 33 16.09 NULL NULL 21 14 64% 75.84 0.0
06 00:15 S 20 G 31 16.09 NULL NULL 21 14 64% 75.84 0.0
05 23:55 S 24 G 37 16.09 NULL NULL 21 14 64% 75.84 0.0
05 23:35 S 22 16.09 NULL NULL 21 14 64% 75.84 0.0
05 23:15 S 15 16.09 NULL NULL 21 13 60% 75.84 0.0
05 22:55 Vrbl 11 G 20 16.09 NULL NULL 21 13 60% 75.87 0.0
05 22:35 S 15 16.09 NULL NULL 21 12 57% 75.87 0.0
05 22:15 S 15 16.09 NULL NULL 21 12 57% 75.87 0.0
05 21:55 S 13 G 26 16.09 NULL NULL 22 12 53% 75.84 0.0
05 21:35 S 19 G 30 16.09 NULL NULL 22 12 53% 75.82 0.0
05 21:15 S 15 G 26 16.09 NULL NULL 23 11 47% 75.79 0.0
05 20:55 S 15 G 35 16.09 NULL NULL 23 11 47% 75.79 0.0
05 20:35 S 15 G 24 16.09 NULL NULL 23 11 47% 75.77 0.0
05 20:15 S 17 G 39 16.09 NULL NULL 24 10 41% 25 75.77 0.0
05 19:55 S 19 G 39 16.09 Fair CLR 24 10 41% 25 75.74 0.0
05 19:35 S 13 G 28 16.09 Fair CLR 24 10 41% 25 75.77 0.0
05 19:15 SW 28 G 48 16.09 Fair CLR 25 9 36% 26 75.74 0.0
05 18:55 S 20 G 31 16.09 Fair CLR 25 9 36% 26 75.74 0.0
05 18:35 S 19 G 37 16.09 Fair CLR 26 9 34% 26 75.74 0.0
05 18:15 S 24 G 39 16.09 Fair CLR 27 9 32% 27 75.74 0.0
Date Time (edt) Wind (kph) Vis. (km) Weather Sky Cond. Air Dwpt Max. Min. Relative Humidity Wind Chill (°C) Heat Index (°C) altimeter (cm) sea level (mb) 1 hr 3 hr 6 hr
6 hour
Temperature (ºC) Pressure Precipitation (cm)